createdAt,value
2022-10-02T00:02:30.834Z,23.10
2022-10-02T00:05:10.786Z,23.10
2022-10-02T00:07:44.299Z,23.00
2022-10-02T00:10:41.971Z,23.00
2022-10-02T00:13:15.530Z,23.00
2022-10-02T00:15:43.227Z,23.00
2022-10-02T00:18:15.011Z,23.00
2022-10-02T00:21:14.492Z,23.00
2022-10-02T00:23:49.538Z,23.00
2022-10-02T00:26:26.611Z,23.00
2022-10-02T00:29:24.692Z,23.10
2022-10-02T00:32:27.287Z,23.00
2022-10-02T00:35:34.022Z,23.00
2022-10-02T00:38:16.089Z,23.00
2022-10-02T00:41:17.404Z,23.00
2022-10-02T00:44:24.197Z,23.00
2022-10-02T00:47:15.613Z,23.00
2022-10-02T00:50:18.943Z,23.00
2022-10-02T00:53:11.141Z,23.00
2022-10-02T00:55:53.356Z,23.00
2022-10-02T00:58:40.048Z,23.00
2022-10-02T01:01:13.929Z,23.00
2022-10-02T01:03:44.524Z,23.00
2022-10-02T01:06:12.546Z,23.00
2022-10-02T01:08:39.807Z,23.00
2022-10-02T01:11:08.627Z,23.00
2022-10-02T01:13:36.079Z,22.90
2022-10-02T01:16:03.953Z,22.90
2022-10-02T01:18:32.052Z,22.90
2022-10-02T01:21:05.407Z,22.90
2022-10-02T01:23:59.335Z,22.90
2022-10-02T01:26:26.503Z,23.00
2022-10-02T01:28:53.808Z,22.90
2022-10-02T01:31:21.374Z,22.90
2022-10-02T01:33:50.032Z,22.90
2022-10-02T01:36:17.683Z,22.90
2022-10-02T01:38:46.860Z,22.90
2022-10-02T01:41:14.225Z,22.90
2022-10-02T01:43:48.340Z,22.90
2022-10-02T01:46:40.106Z,22.90
2022-10-02T01:49:44.109Z,23.00
2022-10-02T01:52:37.062Z,22.90
2022-10-02T01:55:21.287Z,22.90
2022-10-02T01:58:16.783Z,23.00
2022-10-02T02:01:11.461Z,22.90
2022-10-02T02:04:13.925Z,22.90
2022-10-02T02:07:20.965Z,22.90
2022-10-02T02:10:24.111Z,22.90
2022-10-02T02:13:13.956Z,22.90
2022-10-02T02:15:57.117Z,22.90
2022-10-02T02:18:29.821Z,22.90
2022-10-02T02:21:02.717Z,22.90
2022-10-02T02:23:34.141Z,22.90
2022-10-02T02:26:07.012Z,22.90
2022-10-02T02:28:36.558Z,22.90
2022-10-02T02:31:05.345Z,22.90
2022-10-02T02:33:40.047Z,22.90
2022-10-02T02:36:14.550Z,22.80
2022-10-02T02:38:48.157Z,22.80
2022-10-02T02:41:21.064Z,22.90
2022-10-02T02:44:04.048Z,22.80
2022-10-02T02:47:00.704Z,22.80
2022-10-02T02:49:41.135Z,22.90
2022-10-02T02:52:09.712Z,22.80
2022-10-02T02:54:43.191Z,22.80
2022-10-02T02:57:13.339Z,22.80
2022-10-02T02:59:44.355Z,22.80
2022-10-02T03:02:11.396Z,22.80
2022-10-02T03:04:38.419Z,22.80
2022-10-02T03:07:06.865Z,22.80
2022-10-02T03:09:34.029Z,22.80
2022-10-02T03:12:24.131Z,22.80
2022-10-02T03:15:21.771Z,22.80
2022-10-02T03:18:15.503Z,22.70
2022-10-02T03:21:09.865Z,22.80
2022-10-02T03:24:06.533Z,22.80
2022-10-02T03:26:45.612Z,22.70
2022-10-02T03:29:20.596Z,22.70
2022-10-02T03:31:49.196Z,22.70
2022-10-02T03:34:17.553Z,22.70
2022-10-02T03:36:46.820Z,22.70
2022-10-02T03:39:24.757Z,22.70
2022-10-02T03:41:53.685Z,22.70
2022-10-02T03:44:21.093Z,22.70
2022-10-02T03:46:48.157Z,22.70
2022-10-02T03:49:15.225Z,22.70
2022-10-02T03:51:42.369Z,22.70
2022-10-02T03:54:18.144Z,22.70
2022-10-02T03:56:54.824Z,22.70
2022-10-02T03:59:51.121Z,22.70
2022-10-02T04:02:35.271Z,22.70
2022-10-02T04:05:19.034Z,22.70
2022-10-02T04:07:52.818Z,22.70
2022-10-02T04:10:32.498Z,22.80
2022-10-02T04:13:11.957Z,22.70
2022-10-02T04:16:03.791Z,22.70
2022-10-02T04:18:55.730Z,22.70
2022-10-02T04:21:53.307Z,22.70
2022-10-02T04:24:44.957Z,22.70
2022-10-02T04:27:37.265Z,22.70
2022-10-02T04:30:15.307Z,22.70
2022-10-02T04:32:42.750Z,22.70
2022-10-02T04:35:25.688Z,22.70
2022-10-02T04:38:29.195Z,22.70
2022-10-02T04:41:28.560Z,22.70
2022-10-02T04:44:23.841Z,22.70
2022-10-02T04:47:30.591Z,22.70
2022-10-02T04:50:34.693Z,22.70
2022-10-02T04:53:41.698Z,22.70
2022-10-02T04:56:24.057Z,22.70
2022-10-02T04:59:30.750Z,22.70
2022-10-02T05:02:37.506Z,22.70
2022-10-02T05:05:31.522Z,22.70
2022-10-02T05:08:14.140Z,22.70
2022-10-02T05:11:17.067Z,22.70
2022-10-02T05:14:15.364Z,22.70
2022-10-02T05:17:22.088Z,22.70
2022-10-02T05:20:09.813Z,22.70
2022-10-02T05:23:02.728Z,22.70
2022-10-02T05:26:14.067Z,22.80
2022-10-02T05:29:13.061Z,22.80
2022-10-02T05:32:19.792Z,22.80
2022-10-02T05:35:01.956Z,22.90
2022-10-02T05:37:58.011Z,22.80
2022-10-02T05:40:33.310Z,22.80
2022-10-02T05:43:24.076Z,22.80
2022-10-02T05:45:56.997Z,22.90
2022-10-02T05:48:28.920Z,22.90
2022-10-02T05:51:02.484Z,22.90
2022-10-02T05:53:40.492Z,22.90
2022-10-02T05:56:22.779Z,22.90
2022-10-02T05:59:00.863Z,22.90
2022-10-02T06:01:42.845Z,23.00
2022-10-02T06:04:39.391Z,23.00
2022-10-02T06:07:11.396Z,23.00
2022-10-02T06:09:52.578Z,23.00
2022-10-02T06:12:37.349Z,23.10
2022-10-02T06:15:26.626Z,23.10
2022-10-02T06:18:00.221Z,23.10
2022-10-02T06:20:51.076Z,23.10
2022-10-02T06:23:36.056Z,23.10
2022-10-02T06:26:27.649Z,23.10
2022-10-02T06:29:02.637Z,23.20
2022-10-02T06:31:51.148Z,23.20
2022-10-02T06:34:18.403Z,23.20
2022-10-02T06:37:26.054Z,23.20
2022-10-02T06:40:31.104Z,23.30
2022-10-02T06:43:40.583Z,23.30
2022-10-02T06:46:42.698Z,23.30
2022-10-02T06:49:49.448Z,23.30
2022-10-02T06:52:45.830Z,23.30
2022-10-02T06:55:42.362Z,23.40
2022-10-02T06:58:40.000Z,23.40
2022-10-02T07:01:37.307Z,23.40
2022-10-02T07:04:33.552Z,23.40
2022-10-02T07:07:36.974Z,23.40
2022-10-02T07:10:29.955Z,23.50
2022-10-02T07:13:28.985Z,23.50
2022-10-02T07:16:20.306Z,23.50
2022-10-02T07:19:27.085Z,23.60
2022-10-02T07:22:44.430Z,23.60
2022-10-02T07:25:42.583Z,23.60
2022-10-02T07:28:39.830Z,23.60
2022-10-02T07:31:46.618Z,23.60
2022-10-02T07:34:36.265Z,23.60
2022-10-02T07:37:34.839Z,23.70
2022-10-02T07:40:35.517Z,23.70
2022-10-02T07:43:42.252Z,23.70
2022-10-02T07:46:21.026Z,23.70
2022-10-02T07:49:22.555Z,23.70
2022-10-02T07:52:23.961Z,23.80
2022-10-02T07:55:16.012Z,23.90
2022-10-02T07:57:52.504Z,23.90
2022-10-02T08:00:23.129Z,24.00
2022-10-02T08:03:08.641Z,24.10
2022-10-02T08:05:46.995Z,24.10
2022-10-02T08:08:32.258Z,24.10
2022-10-02T08:11:09.862Z,24.20
2022-10-02T08:13:56.076Z,24.20
2022-10-02T08:16:29.982Z,24.30
2022-10-02T08:19:02.891Z,24.30
2022-10-02T08:21:38.988Z,24.30
2022-10-02T08:24:14.078Z,24.40
2022-10-02T08:26:48.889Z,24.40
2022-10-02T08:29:24.474Z,24.40
2022-10-02T08:31:56.530Z,24.50
2022-10-02T08:34:25.323Z,24.50
2022-10-02T08:37:32.528Z,24.50
2022-10-02T08:40:34.995Z,24.50
2022-10-02T08:43:41.847Z,24.50
2022-10-02T08:46:41.630Z,24.60
2022-10-02T08:49:41.371Z,24.60
2022-10-02T08:52:48.252Z,24.60
2022-10-02T08:55:47.326Z,24.60
2022-10-02T08:58:46.512Z,24.60
2022-10-02T09:01:59.572Z,24.70
2022-10-02T09:05:07.078Z,24.70
2022-10-02T09:08:13.906Z,24.70
2022-10-02T09:11:21.025Z,24.70
2022-10-02T09:14:28.388Z,24.80
2022-10-02T09:17:17.816Z,24.80
2022-10-02T09:20:06.048Z,24.80
2022-10-02T09:23:08.616Z,24.80
2022-10-02T09:25:55.719Z,24.90
2022-10-02T09:29:01.511Z,24.90
2022-10-02T09:31:58.350Z,24.90
2022-10-02T09:35:02.201Z,24.90
2022-10-02T09:38:09.201Z,24.90
2022-10-02T09:41:10.769Z,24.90
2022-10-02T09:44:14.285Z,24.90
2022-10-02T09:47:09.532Z,24.90
2022-10-02T09:50:05.469Z,24.90
2022-10-02T09:53:09.306Z,25.00
2022-10-02T09:56:16.108Z,25.10
2022-10-02T09:59:22.848Z,25.10
2022-10-02T10:02:29.674Z,25.10
2022-10-02T10:05:26.171Z,25.10
2022-10-02T10:08:25.812Z,25.10
2022-10-02T10:11:31.151Z,25.10
2022-10-02T10:14:37.884Z,25.20
2022-10-02T10:17:39.279Z,25.20
2022-10-02T10:20:51.928Z,25.20
2022-10-02T10:23:56.416Z,25.30
2022-10-02T10:26:56.130Z,25.20
2022-10-02T10:30:04.004Z,25.30
2022-10-02T10:33:01.539Z,25.30
2022-10-02T10:36:08.320Z,25.30
2022-10-02T10:39:06.232Z,25.30
2022-10-02T10:42:14.720Z,25.30
2022-10-02T10:45:03.087Z,25.30
2022-10-02T10:48:09.837Z,25.30
2022-10-02T10:51:00.547Z,25.30
2022-10-02T10:54:08.759Z,25.30
2022-10-02T10:56:46.464Z,25.30
2022-10-02T10:59:53.024Z,25.20
2022-10-02T11:02:54.916Z,25.20
2022-10-02T11:05:51.864Z,25.30
2022-10-02T11:08:58.859Z,25.20
2022-10-02T11:12:09.521Z,25.20
2022-10-02T11:15:17.799Z,25.30
2022-10-02T11:18:06.938Z,25.20
2022-10-02T11:21:06.449Z,25.20
2022-10-02T11:24:04.658Z,25.30
2022-10-02T11:27:11.382Z,25.30
2022-10-02T11:30:00.183Z,25.30
2022-10-02T11:33:00.131Z,25.30
2022-10-02T11:35:57.854Z,25.20
2022-10-02T11:38:59.657Z,25.20
2022-10-02T11:41:45.371Z,25.20
2022-10-02T11:44:39.079Z,25.20
2022-10-02T11:47:46.800Z,25.20
2022-10-02T11:50:38.491Z,25.20
2022-10-02T11:53:43.620Z,25.20
2022-10-02T11:56:42.272Z,25.20
2022-10-02T11:59:41.573Z,25.20
2022-10-02T12:02:28.841Z,25.20
2022-10-02T12:05:22.625Z,25.20
2022-10-02T12:08:24.329Z,25.20
2022-10-02T12:10:59.431Z,25.20
2022-10-02T12:13:47.320Z,25.20
2022-10-02T12:16:33.265Z,25.20
2022-10-02T12:19:40.652Z,25.20
2022-10-02T12:22:41.916Z,25.20
2022-10-02T12:25:59.383Z,25.10
2022-10-02T12:28:56.287Z,25.20
2022-10-02T12:31:40.964Z,25.20
2022-10-02T12:34:38.540Z,25.10
2022-10-02T12:37:19.576Z,25.10
2022-10-02T12:40:13.592Z,25.10
2022-10-02T12:43:20.847Z,25.10
2022-10-02T12:46:08.013Z,25.10
2022-10-02T12:48:54.102Z,25.10
2022-10-02T12:51:55.273Z,25.10
2022-10-02T12:54:55.955Z,25.10
2022-10-02T12:57:55.203Z,25.10
2022-10-02T13:00:42.026Z,25.10
2022-10-02T13:03:48.758Z,25.00
2022-10-02T13:06:46.694Z,25.00
2022-10-02T13:09:43.819Z,25.00
2022-10-02T13:12:42.971Z,25.00
2022-10-02T13:15:29.598Z,25.00
2022-10-02T13:18:25.584Z,25.00
2022-10-02T13:21:13.692Z,25.00
2022-10-02T13:24:08.705Z,25.00
2022-10-02T13:26:46.818Z,25.00
2022-10-02T13:29:52.423Z,25.00
2022-10-02T13:32:44.859Z,25.00
2022-10-02T13:35:45.939Z,25.00
2022-10-02T13:38:51.688Z,25.00
2022-10-02T13:41:58.436Z,25.10
2022-10-02T13:45:04.013Z,25.00
2022-10-02T13:47:41.285Z,25.10
2022-10-02T13:50:37.862Z,25.10
2022-10-02T13:53:35.077Z,25.10
2022-10-02T13:56:29.101Z,25.10
2022-10-02T13:59:34.744Z,25.10
2022-10-02T14:02:21.112Z,25.20
2022-10-02T14:05:06.467Z,25.20
2022-10-02T14:08:09.512Z,25.10
2022-10-02T14:11:09.932Z,25.20
2022-10-02T14:14:03.677Z,25.20
2022-10-02T14:17:11.077Z,25.10
2022-10-02T14:20:08.246Z,25.10
2022-10-02T14:23:00.216Z,25.10
2022-10-02T14:25:51.590Z,25.10
2022-10-02T14:28:55.047Z,25.10
2022-10-02T14:31:51.497Z,25.10
2022-10-02T14:34:42.555Z,25.10
2022-10-02T14:37:49.574Z,25.10
2022-10-02T14:40:19.225Z,25.10
2022-10-02T14:43:26.024Z,25.10
2022-10-02T14:46:36.098Z,25.10
2022-10-02T14:49:30.380Z,25.00
2022-10-02T14:52:22.588Z,25.00
2022-10-02T14:55:25.780Z,25.00
2022-10-02T14:58:20.531Z,24.90
2022-10-02T15:01:15.054Z,24.90
2022-10-02T15:04:16.721Z,24.90
2022-10-02T15:07:01.581Z,24.90
2022-10-02T15:09:58.426Z,24.80
2022-10-02T15:12:48.147Z,24.80
2022-10-02T15:15:40.424Z,24.80
2022-10-02T15:18:38.570Z,24.80
2022-10-02T15:21:26.996Z,24.70
2022-10-02T15:23:58.679Z,24.70
2022-10-02T15:26:51.160Z,24.70
2022-10-02T15:29:35.774Z,24.70
2022-10-02T15:32:20.182Z,24.70
2022-10-02T15:35:07.873Z,24.70
2022-10-02T15:38:04.860Z,24.70
2022-10-02T15:41:05.593Z,24.60
2022-10-02T15:44:03.303Z,24.60
2022-10-02T15:46:57.907Z,24.70
2022-10-02T15:49:59.373Z,24.60
2022-10-02T15:52:57.290Z,24.60
2022-10-02T15:55:41.936Z,24.60
2022-10-02T15:58:48.666Z,24.50
2022-10-02T16:01:43.753Z,24.50
2022-10-02T16:04:40.850Z,24.50
2022-10-02T16:07:47.564Z,24.50
2022-10-02T16:10:51.951Z,24.50
2022-10-02T16:13:47.181Z,24.50
2022-10-02T16:16:47.553Z,24.40
2022-10-02T16:19:46.218Z,24.40
2022-10-02T16:22:45.656Z,24.40
2022-10-02T16:25:31.369Z,24.30
2022-10-02T16:28:24.968Z,24.30
2022-10-02T16:31:26.252Z,24.30
2022-10-02T16:34:14.409Z,24.30
2022-10-02T16:36:57.500Z,24.30
2022-10-02T16:39:51.012Z,24.30
2022-10-02T16:42:32.436Z,24.30
2022-10-02T16:45:35.157Z,24.30
2022-10-02T16:48:15.068Z,24.30
2022-10-02T16:51:21.796Z,24.20
2022-10-02T16:54:18.707Z,24.20
2022-10-02T16:57:14.678Z,24.20
2022-10-02T17:00:01.652Z,24.20
2022-10-02T17:02:47.872Z,24.20
2022-10-02T17:05:53.342Z,24.20
2022-10-02T17:08:46.799Z,24.10
2022-10-02T17:11:27.328Z,24.10
2022-10-02T17:14:22.796Z,24.00
2022-10-02T17:17:01.797Z,24.00
2022-10-02T17:19:45.939Z,24.00
2022-10-02T17:22:44.913Z,24.00
2022-10-02T17:25:36.360Z,24.00
2022-10-02T17:28:37.049Z,24.00
2022-10-02T17:31:42.225Z,23.90
2022-10-02T17:34:20.227Z,23.90
2022-10-02T17:37:26.983Z,23.90
2022-10-02T17:40:20.269Z,23.90
2022-10-02T17:43:15.986Z,23.90
2022-10-02T17:46:03.469Z,23.90
2022-10-02T17:48:47.114Z,23.80
2022-10-02T17:51:53.833Z,23.80
2022-10-02T17:55:11.108Z,23.80
2022-10-02T17:58:17.467Z,23.80
2022-10-02T18:01:12.976Z,23.70
2022-10-02T18:04:10.219Z,23.70
2022-10-02T18:07:11.503Z,23.70
2022-10-02T18:10:15.115Z,23.70
2022-10-02T18:12:57.049Z,23.70
2022-10-02T18:15:47.400Z,23.70
2022-10-02T18:18:34.229Z,23.70
2022-10-02T18:21:28.195Z,23.60
2022-10-02T18:24:26.528Z,23.60
2022-10-02T18:27:37.173Z,23.60
2022-10-02T18:30:21.269Z,23.60
2022-10-02T18:33:25.356Z,23.60
2022-10-02T18:36:29.210Z,23.60
2022-10-02T18:39:28.003Z,23.60
2022-10-02T18:42:40.110Z,23.60
2022-10-02T18:45:46.958Z,23.60
2022-10-02T18:48:50.344Z,23.60
2022-10-02T18:51:33.100Z,23.50
2022-10-02T18:54:41.104Z,23.50
2022-10-02T18:57:41.674Z,23.50
2022-10-02T19:00:24.730Z,23.50
2022-10-02T19:03:27.811Z,23.50
2022-10-02T19:06:04.199Z,23.50
2022-10-02T19:09:03.983Z,23.50
2022-10-02T19:11:34.204Z,23.50
2022-10-02T19:14:13.458Z,23.50
2022-10-02T19:16:57.154Z,23.50
2022-10-02T19:19:25.187Z,23.50
2022-10-02T19:21:59.013Z,23.40
2022-10-02T19:24:31.706Z,23.40
2022-10-02T19:27:02.603Z,23.40
2022-10-02T19:29:46.495Z,23.40
2022-10-02T19:32:23.184Z,23.40
2022-10-02T19:35:01.654Z,23.40
2022-10-02T19:37:30.249Z,23.40
2022-10-02T19:40:01.908Z,23.40
2022-10-02T19:42:34.180Z,23.40
2022-10-02T19:45:08.272Z,23.40
2022-10-02T19:47:42.838Z,23.40
2022-10-02T19:50:28.024Z,23.40
2022-10-02T19:52:58.908Z,23.40
2022-10-02T19:55:37.108Z,23.40
2022-10-02T19:58:20.265Z,23.40
2022-10-02T20:00:50.939Z,23.40
2022-10-02T20:03:24.377Z,23.30
2022-10-02T20:05:55.746Z,23.30
2022-10-02T20:08:28.963Z,23.30
2022-10-02T20:11:05.649Z,23.30
2022-10-02T20:13:44.637Z,23.30
2022-10-02T20:16:42.126Z,23.30
2022-10-02T20:19:38.765Z,23.30
2022-10-02T20:22:14.883Z,23.30
2022-10-02T20:24:55.259Z,23.30
2022-10-02T20:27:24.978Z,23.30
2022-10-02T20:30:00.959Z,23.30
2022-10-02T20:32:36.873Z,23.30
2022-10-02T20:35:25.800Z,23.20
2022-10-02T20:37:54.362Z,23.30
2022-10-02T20:40:36.971Z,23.30
2022-10-02T20:43:09.723Z,23.20
2022-10-02T20:45:46.670Z,23.20
2022-10-02T20:49:07.586Z,23.20
2022-10-02T20:52:14.468Z,23.20
2022-10-02T20:55:03.669Z,23.20
2022-10-02T20:58:01.016Z,23.20
2022-10-02T21:00:52.564Z,23.20
2022-10-02T21:03:36.956Z,23.20
2022-10-02T21:06:35.684Z,23.20
2022-10-02T21:09:35.943Z,23.20
2022-10-02T21:12:42.657Z,23.20
2022-10-02T21:15:38.484Z,23.20
2022-10-02T21:18:34.591Z,23.20
2022-10-02T21:21:34.512Z,23.20
2022-10-02T21:24:41.289Z,23.20
2022-10-02T21:27:41.740Z,23.20
2022-10-02T21:30:14.701Z,23.20
2022-10-02T21:33:14.219Z,23.20
2022-10-02T21:36:02.473Z,23.20
2022-10-02T21:39:02.262Z,23.20
2022-10-02T21:42:07.368Z,23.20
2022-10-02T21:45:14.362Z,23.20
2022-10-02T21:48:21.099Z,23.20
2022-10-02T21:51:27.882Z,23.20
2022-10-02T21:54:30.718Z,23.20
2022-10-02T21:57:37.440Z,23.20
2022-10-02T22:00:16.059Z,23.20
2022-10-02T22:03:22.795Z,23.10
2022-10-02T22:06:21.269Z,23.10
2022-10-02T22:09:17.872Z,23.10
2022-10-02T22:12:09.773Z,23.20
2022-10-02T22:14:43.105Z,23.20
2022-10-02T22:17:38.911Z,23.20
2022-10-02T22:20:45.677Z,23.10
2022-10-02T22:23:52.434Z,23.20
2022-10-02T22:26:59.219Z,23.10
2022-10-02T22:29:49.547Z,23.10
2022-10-02T22:33:07.922Z,23.10
2022-10-02T22:36:14.741Z,23.10
2022-10-02T22:38:53.489Z,23.10
2022-10-02T22:41:39.479Z,23.10
2022-10-02T22:44:21.762Z,23.10
2022-10-02T22:47:05.960Z,23.10
2022-10-02T22:49:57.306Z,23.10
2022-10-02T22:52:52.778Z,23.10
2022-10-02T22:55:34.082Z,23.10
2022-10-02T22:58:21.584Z,23.10
2022-10-02T23:01:13.211Z,23.10
2022-10-02T23:03:57.834Z,23.10
2022-10-02T23:06:41.436Z,23.00
2022-10-02T23:09:24.899Z,23.10
2022-10-02T23:12:25.443Z,23.10
2022-10-02T23:15:15.713Z,23.00
2022-10-02T23:17:58.360Z,23.10
2022-10-02T23:20:39.758Z,23.00
2022-10-02T23:23:28.389Z,23.00
2022-10-02T23:26:18.202Z,23.00
2022-10-02T23:28:56.856Z,23.00
2022-10-02T23:31:33.425Z,23.10
2022-10-02T23:34:35.634Z,23.00
2022-10-02T23:37:14.485Z,23.00
2022-10-02T23:39:58.627Z,23.00
2022-10-02T23:42:42.538Z,23.10
2022-10-02T23:45:36.067Z,23.10
2022-10-02T23:48:07.644Z,23.10
2022-10-02T23:51:02.088Z,23.10
2022-10-02T23:54:08.869Z,23.10
2022-10-02T23:57:12.375Z,23.10
2022-10-02T23:59:59.370Z,23.00
